createdAt,value
2022-10-25T00:00:39.839Z,70.51
2022-10-25T00:03:11.366Z,70.72
2022-10-25T00:05:39.240Z,70.93
2022-10-25T00:08:06.292Z,71.15
2022-10-25T00:10:33.869Z,71.06
2022-10-25T00:13:00.310Z,71.43
2022-10-25T00:15:27.171Z,71.10
2022-10-25T00:17:53.793Z,71.00
2022-10-25T00:20:20.620Z,70.96
2022-10-25T00:22:47.424Z,71.08
2022-10-25T00:25:14.189Z,71.03
2022-10-25T00:27:40.638Z,71.25
2022-10-25T00:30:08.189Z,71.09
2022-10-25T00:32:35.129Z,71.70
2022-10-25T00:35:01.973Z,71.94
2022-10-25T00:37:28.525Z,71.56
2022-10-25T00:39:54.931Z,71.26
2022-10-25T00:42:24.438Z,71.78
2022-10-25T00:45:02.101Z,71.73
2022-10-25T00:47:32.810Z,71.22
2022-10-25T00:50:22.872Z,71.84
2022-10-25T00:52:53.484Z,71.61
2022-10-25T00:55:24.008Z,71.60
2022-10-25T00:57:56.702Z,72.08
2022-10-25T01:00:23.219Z,72.07
2022-10-25T01:02:49.813Z,72.59
2022-10-25T01:08:57.572Z,72.19
2022-10-25T01:11:25.173Z,71.75
2022-10-25T01:13:52.426Z,72.00
2022-10-25T01:16:28.323Z,71.58
2022-10-25T01:19:11.697Z,71.81
2022-10-25T01:21:50.813Z,71.63
2022-10-25T01:24:56.365Z,71.96
2022-10-25T01:27:44.580Z,72.02
2022-10-25T01:30:23.711Z,71.65
2022-10-25T01:33:08.586Z,71.47
2022-10-25T01:39:04.509Z,71.57
2022-10-25T01:41:41.767Z,71.71
2022-10-25T01:44:29.109Z,70.78
2022-10-25T01:47:04.152Z,70.71
2022-10-25T01:49:44.347Z,71.17
2022-10-25T01:52:10.807Z,71.62
2022-10-25T01:54:37.364Z,70.58
2022-10-25T01:57:15.296Z,71.09
2022-10-25T01:59:56.127Z,71.17
2022-10-25T02:02:36.975Z,71.23
2022-10-25T02:05:25.109Z,70.81
2022-10-25T02:08:03.426Z,70.59
2022-10-25T02:10:40.463Z,70.27
2022-10-25T02:13:27.069Z,70.38
2022-10-25T02:16:09.306Z,70.37
2022-10-25T02:18:39.522Z,70.71
2022-10-25T02:21:06.878Z,70.29
2022-10-25T02:23:36.074Z,69.81
2022-10-25T02:26:06.017Z,70.12
2022-10-25T02:28:35.861Z,69.55
2022-10-25T02:31:02.397Z,69.66
2022-10-25T02:33:29.220Z,69.65
2022-10-25T02:36:09.451Z,69.80
2022-10-25T02:38:36.221Z,68.94
2022-10-25T02:41:04.436Z,70.30
2022-10-25T02:43:30.883Z,69.92
2022-10-25T02:45:57.344Z,69.40
2022-10-25T02:48:23.865Z,70.32
2022-10-25T02:50:50.388Z,69.96
2022-10-25T02:53:16.819Z,69.35
2022-10-25T02:55:43.244Z,69.85
2022-10-25T02:58:09.778Z,69.73
2022-10-25T03:00:36.249Z,69.76
2022-10-25T03:03:02.785Z,70.11
2022-10-25T03:05:29.177Z,69.43
2022-10-25T03:07:55.600Z,70.19
2022-10-25T03:10:21.993Z,69.55
2022-10-25T03:12:48.720Z,69.41
2022-10-25T03:15:15.587Z,69.91
2022-10-25T03:17:42.035Z,69.88
2022-10-25T03:20:09.087Z,69.58
2022-10-25T03:22:35.486Z,69.30
2022-10-25T03:25:01.918Z,69.24
2022-10-25T03:27:28.354Z,69.50
2022-10-25T03:29:54.868Z,69.24
2022-10-25T03:32:21.261Z,69.70
2022-10-25T03:34:47.660Z,69.33
2022-10-25T03:37:14.061Z,69.48
2022-10-25T03:39:40.662Z,69.04
2022-10-25T03:42:07.041Z,69.44
2022-10-25T03:44:33.479Z,69.39
2022-10-25T03:46:59.869Z,69.26
2022-10-25T03:49:26.580Z,69.33
2022-10-25T03:51:57.046Z,68.83
2022-10-25T03:54:29.124Z,67.91
2022-10-25T03:56:55.885Z,68.75
2022-10-25T03:59:22.285Z,68.16
2022-10-25T04:01:49.012Z,68.25
2022-10-25T04:04:15.640Z,68.57
2022-10-25T04:06:42.047Z,68.16
2022-10-25T04:09:08.536Z,67.87
2022-10-25T04:11:35.054Z,67.75
2022-10-25T04:14:01.689Z,67.92
2022-10-25T04:16:28.709Z,67.74
2022-10-25T04:18:55.274Z,67.33
2022-10-25T04:21:21.978Z,67.49
2022-10-25T04:23:49.844Z,67.63
2022-10-25T04:26:20.264Z,67.93
2022-10-25T04:28:51.582Z,67.53
2022-10-25T04:31:18.528Z,68.16
2022-10-25T04:33:51.942Z,68.31
2022-10-25T04:36:18.799Z,67.84
2022-10-25T04:38:51.424Z,68.40
2022-10-25T04:41:18.769Z,67.80
2022-10-25T04:43:45.973Z,67.98
2022-10-25T04:46:13.329Z,68.15
2022-10-25T04:48:41.263Z,68.63
2022-10-25T04:51:08.746Z,69.07
2022-10-25T04:53:35.222Z,69.18
2022-10-25T04:56:09.976Z,68.62
2022-10-25T04:58:36.786Z,69.27
2022-10-25T05:01:09.168Z,69.87
2022-10-25T05:03:35.886Z,70.03
2022-10-25T05:06:14.563Z,69.71
2022-10-25T05:08:43.191Z,70.34
2022-10-25T05:11:11.752Z,70.34
2022-10-25T05:13:39.449Z,70.42
2022-10-25T05:16:07.029Z,70.52
2022-10-25T05:18:34.565Z,70.27
2022-10-25T05:21:04.701Z,69.68
2022-10-25T05:23:32.710Z,69.96
2022-10-25T05:26:13.698Z,70.26
2022-10-25T05:28:41.919Z,70.62
2022-10-25T05:31:22.613Z,70.16
2022-10-25T05:33:51.517Z,69.79
2022-10-25T05:36:18.418Z,69.80
2022-10-25T05:38:44.941Z,69.56
2022-10-25T05:41:13.290Z,69.53
2022-10-25T05:43:40.161Z,69.95
2022-10-25T05:46:10.752Z,69.62
2022-10-25T05:48:37.997Z,69.91
2022-10-25T05:51:36.581Z,69.92
2022-10-25T05:54:15.013Z,69.74
2022-10-25T05:56:42.762Z,69.60
2022-10-25T05:59:14.432Z,69.11
2022-10-25T06:01:46.201Z,69.81
2022-10-25T06:04:13.640Z,69.12
2022-10-25T06:06:41.422Z,69.77
2022-10-25T06:09:08.552Z,69.44
2022-10-25T06:11:35.399Z,69.28
2022-10-25T06:14:01.982Z,68.84
2022-10-25T06:16:28.706Z,69.02
2022-10-25T06:18:55.248Z,68.92
2022-10-25T06:21:24.449Z,68.85
2022-10-25T06:23:51.585Z,68.89
2022-10-25T06:26:26.898Z,68.94
2022-10-25T06:28:59.280Z,68.80
2022-10-25T06:31:26.657Z,67.95
2022-10-25T06:33:53.151Z,68.60
2022-10-25T06:36:22.464Z,67.98
2022-10-25T06:38:50.304Z,68.04
2022-10-25T06:41:20.229Z,68.33
2022-10-25T06:43:47.476Z,68.11
2022-10-25T06:46:24.148Z,67.87
2022-10-25T06:48:52.488Z,67.21
2022-10-25T06:51:19.279Z,67.35
2022-10-25T06:53:46.623Z,67.27
2022-10-25T06:56:15.003Z,67.52
2022-10-25T06:58:42.006Z,67.14
2022-10-25T07:01:13.074Z,67.25
2022-10-25T07:03:40.183Z,66.77
2022-10-25T07:06:14.713Z,66.65
2022-10-25T07:08:43.460Z,67.05
2022-10-25T07:11:15.061Z,67.29
2022-10-25T07:13:41.622Z,67.12
2022-10-25T07:16:11.220Z,66.54
2022-10-25T07:18:38.010Z,67.17
2022-10-25T07:21:11.091Z,66.58
2022-10-25T07:23:42.032Z,66.72
2022-10-25T07:26:13.113Z,65.63
2022-10-25T07:28:40.728Z,66.37
2022-10-25T07:31:08.065Z,66.49
2022-10-25T07:33:34.479Z,67.04
2022-10-25T07:36:11.144Z,66.87
2022-10-25T07:38:38.503Z,66.92
2022-10-25T07:41:05.606Z,65.80
2022-10-25T07:43:32.129Z,66.23
2022-10-25T07:45:58.531Z,65.90
2022-10-25T07:48:25.036Z,65.07
2022-10-25T07:50:51.607Z,65.71
2022-10-25T07:53:18.414Z,65.31
2022-10-25T07:55:55.676Z,65.42
2022-10-25T07:58:22.401Z,64.96
2022-10-25T08:00:49.063Z,65.54
2022-10-25T08:03:16.902Z,66.07
2022-10-25T08:05:45.296Z,65.89
2022-10-25T08:08:12.485Z,65.24
2022-10-25T08:10:39.022Z,64.93
2022-10-25T08:13:05.455Z,64.99
2022-10-25T08:15:31.890Z,64.55
2022-10-25T08:18:02.146Z,63.94
2022-10-25T08:20:49.571Z,65.24
2022-10-25T08:23:16.069Z,64.92
2022-10-25T08:25:42.635Z,65.49
2022-10-25T08:28:09.331Z,66.71
2022-10-25T08:30:35.792Z,66.95
2022-10-25T08:33:02.383Z,67.18
2022-10-25T08:35:28.871Z,67.18
2022-10-25T08:37:55.278Z,67.73
2022-10-25T08:40:26.571Z,66.66
2022-10-25T08:43:15.308Z,66.86
2022-10-25T08:45:53.984Z,67.14
2022-10-25T08:48:26.475Z,66.36
2022-10-25T08:50:57.708Z,66.49
2022-10-25T08:53:30.214Z,67.00
2022-10-25T08:56:15.200Z,67.56
2022-10-25T08:58:49.687Z,65.93
2022-10-25T09:01:25.102Z,66.50
2022-10-25T09:03:51.691Z,66.86
2022-10-25T09:06:55.580Z,66.19
2022-10-25T09:09:34.985Z,65.28
2022-10-25T09:12:16.262Z,65.75
2022-10-25T09:15:29.184Z,66.48
2022-10-25T09:17:55.576Z,65.65
2022-10-25T09:20:29.678Z,64.79
2022-10-25T09:23:08.242Z,63.79
2022-10-25T09:25:47.366Z,64.33
2022-10-25T09:28:25.102Z,61.68
2022-10-25T09:30:57.245Z,61.04
2022-10-25T09:33:30.359Z,58.61
2022-10-25T09:35:58.654Z,57.91
2022-10-25T09:38:34.666Z,55.59
2022-10-25T09:41:16.397Z,53.25
2022-10-25T09:43:45.780Z,51.93
2022-10-25T09:46:18.162Z,52.19
2022-10-25T09:49:00.977Z,53.03
2022-10-25T09:51:35.951Z,53.46
2022-10-25T09:54:13.551Z,53.00
2022-10-25T09:56:40.196Z,52.56
2022-10-25T09:59:08.380Z,54.03
2022-10-25T10:01:38.552Z,55.34
2022-10-25T10:04:24.661Z,56.07
2022-10-25T10:06:53.700Z,57.14
2022-10-25T10:09:20.351Z,57.02
2022-10-25T10:11:48.716Z,58.16
2022-10-25T10:14:26.967Z,58.15
2022-10-25T10:16:56.247Z,56.91
2022-10-25T10:19:29.882Z,57.61
2022-10-25T10:22:00.625Z,58.43
2022-10-25T10:24:30.181Z,58.21
2022-10-25T10:27:07.509Z,59.42
2022-10-25T10:29:39.318Z,60.38
2022-10-25T10:32:22.588Z,60.34
2022-10-25T10:34:55.071Z,60.12
2022-10-25T10:37:23.983Z,60.76
2022-10-25T10:39:53.203Z,60.75
2022-10-25T10:45:04.338Z,60.75
2022-10-25T10:47:36.948Z,60.22
2022-10-25T10:50:13.836Z,60.23
2022-10-25T10:52:44.515Z,60.54
2022-10-25T10:55:35.345Z,60.17
2022-10-25T10:58:05.655Z,58.72
2022-10-25T11:00:33.542Z,58.73
2022-10-25T11:03:00.763Z,56.73
2022-10-25T11:05:31.529Z,56.85
2022-10-25T11:08:17.293Z,55.07
2022-10-25T11:10:43.719Z,54.47
2022-10-25T11:13:20.874Z,52.07
2022-10-25T11:16:04.340Z,50.87
2022-10-25T11:18:42.378Z,48.79
2022-10-25T11:21:25.605Z,48.93
2022-10-25T11:24:15.082Z,48.15
2022-10-25T11:27:19.657Z,48.36
2022-10-25T11:29:48.751Z,47.99
2022-10-25T11:32:20.979Z,46.44
2022-10-25T11:34:53.273Z,46.09
2022-10-25T11:37:29.849Z,45.55
2022-10-25T11:40:16.653Z,45.04
2022-10-25T11:43:04.696Z,45.89
2022-10-25T11:45:49.762Z,42.44
2022-10-25T11:48:34.973Z,40.99
2022-10-25T11:51:35.165Z,38.03
2022-10-25T11:54:23.734Z,36.35
2022-10-25T11:57:12.017Z,35.62
2022-10-25T11:59:49.885Z,36.44
2022-10-25T12:02:34.388Z,33.99
2022-10-25T12:05:19.626Z,36.43
2022-10-25T12:07:48.721Z,39.25
2022-10-25T12:10:23.721Z,43.41
2022-10-25T12:12:55.803Z,44.69
2022-10-25T12:15:39.251Z,47.66
2022-10-25T12:18:09.960Z,49.87
2022-10-25T12:20:37.206Z,49.51
2022-10-25T12:23:10.629Z,48.89
2022-10-25T12:26:02.129Z,50.62
2022-10-25T12:28:48.593Z,50.73
2022-10-25T12:31:27.288Z,51.17
2022-10-25T12:34:03.703Z,52.18
2022-10-25T12:36:39.338Z,52.88
2022-10-25T12:39:45.066Z,53.42
2022-10-25T12:42:35.865Z,53.26
2022-10-25T12:45:14.246Z,52.50
2022-10-25T12:47:59.539Z,53.15
2022-10-25T12:50:50.398Z,53.38
2022-10-25T12:53:53.886Z,53.78
2022-10-25T12:56:38.401Z,53.63
2022-10-25T12:59:44.607Z,54.17
2022-10-25T13:02:43.216Z,53.90
2022-10-25T13:05:47.198Z,53.52
2022-10-25T13:08:17.921Z,53.30
2022-10-25T13:10:50.313Z,53.80
2022-10-25T13:13:23.544Z,53.64
2022-10-25T13:15:52.939Z,53.85
2022-10-25T13:18:31.559Z,54.07
2022-10-25T13:20:59.399Z,53.46
2022-10-25T13:23:58.379Z,54.73
2022-10-25T13:26:27.137Z,54.75
2022-10-25T13:28:56.388Z,54.79
2022-10-25T13:31:30.147Z,55.03
2022-10-25T13:34:14.562Z,56.44
2022-10-25T13:36:52.577Z,56.77
2022-10-25T13:39:43.500Z,57.95
2022-10-25T13:42:16.142Z,58.24
2022-10-25T13:45:04.346Z,59.42
2022-10-25T13:47:33.749Z,59.07
2022-10-25T13:50:00.631Z,58.70
2022-10-25T13:52:33.997Z,59.48
2022-10-25T13:55:06.188Z,59.74
2022-10-25T13:57:52.749Z,59.56
2022-10-25T14:00:57.771Z,58.79
2022-10-25T14:03:46.069Z,58.49
2022-10-25T14:06:26.169Z,58.10
2022-10-25T14:09:11.043Z,58.16
2022-10-25T14:11:48.475Z,58.65
2022-10-25T14:14:56.752Z,58.36
2022-10-25T14:17:37.629Z,57.73
2022-10-25T14:20:23.035Z,57.92
2022-10-25T14:23:00.273Z,57.74
2022-10-25T14:25:39.679Z,57.36
2022-10-25T14:28:17.461Z,57.59
2022-10-25T14:30:46.975Z,58.12
2022-10-25T14:33:19.479Z,58.67
2022-10-25T14:35:49.203Z,59.63
2022-10-25T14:38:19.010Z,59.56
2022-10-25T14:41:03.747Z,59.19
2022-10-25T14:43:38.130Z,59.58
2022-10-25T14:46:15.417Z,59.80
2022-10-25T14:48:47.465Z,59.99
2022-10-25T14:51:21.533Z,60.05
2022-10-25T14:53:53.533Z,60.08
2022-10-25T14:56:42.246Z,60.67
2022-10-25T14:59:29.321Z,60.72
2022-10-25T15:02:06.008Z,60.82
2022-10-25T15:04:38.562Z,60.90
2022-10-25T15:07:06.389Z,60.96
2022-10-25T15:09:48.991Z,61.19
2022-10-25T15:12:17.137Z,61.08
2022-10-25T15:14:43.876Z,61.43
2022-10-25T15:17:22.617Z,62.28
2022-10-25T15:22:37.243Z,62.92
2022-10-25T15:25:22.526Z,63.20
2022-10-25T15:27:54.744Z,62.92
2022-10-25T15:30:36.661Z,62.54
2022-10-25T15:33:05.135Z,62.17
2022-10-25T15:35:38.671Z,62.42
2022-10-25T15:38:05.759Z,63.54
2022-10-25T15:40:32.169Z,63.18
2022-10-25T15:42:58.545Z,62.37
2022-10-25T15:45:25.015Z,63.42
2022-10-25T15:47:53.404Z,63.34
2022-10-25T15:50:20.028Z,63.06
2022-10-25T15:52:46.786Z,63.13
2022-10-25T15:55:23.056Z,63.31
2022-10-25T15:57:50.407Z,63.74
2022-10-25T16:00:25.533Z,63.51
2022-10-25T16:02:54.637Z,63.63
2022-10-25T16:05:35.673Z,63.79
2022-10-25T16:08:02.674Z,64.19
2022-10-25T16:10:29.839Z,64.11
2022-10-25T16:13:03.965Z,64.52
2022-10-25T16:15:31.171Z,64.57
2022-10-25T16:17:57.756Z,64.54
2022-10-25T16:20:27.539Z,64.57
2022-10-25T16:22:55.498Z,64.82
2022-10-25T16:25:27.921Z,65.68
2022-10-25T16:27:58.596Z,65.33
2022-10-25T16:30:27.081Z,65.18
2022-10-25T16:32:53.500Z,64.88
2022-10-25T16:35:24.182Z,65.18
2022-10-25T16:37:51.714Z,65.45
2022-10-25T16:40:19.748Z,65.58
2022-10-25T16:42:47.092Z,65.83
2022-10-25T16:45:27.532Z,65.66
2022-10-25T16:47:57.670Z,65.46
2022-10-25T16:50:26.031Z,65.82
2022-10-25T16:52:54.517Z,65.98
2022-10-25T16:55:21.435Z,65.97
2022-10-25T17:00:15.399Z,66.38
2022-10-25T17:02:41.962Z,66.51
2022-10-25T17:05:17.722Z,67.39
2022-10-25T17:07:45.658Z,67.79
2022-10-25T17:10:14.225Z,67.91
2022-10-25T17:12:55.625Z,67.61
2022-10-25T17:15:22.104Z,67.66
2022-10-25T17:17:48.749Z,67.81
2022-10-25T17:20:17.200Z,67.61
2022-10-25T17:22:44.160Z,67.82
2022-10-25T17:25:11.295Z,67.56
2022-10-25T17:27:39.886Z,67.51
2022-10-25T17:30:08.052Z,67.84
2022-10-25T17:32:34.545Z,67.70
2022-10-25T17:35:01.346Z,67.44
2022-10-25T17:37:28.216Z,67.93
2022-10-25T17:39:54.745Z,67.76
2022-10-25T17:42:21.176Z,67.64
2022-10-25T17:44:47.751Z,67.57
2022-10-25T17:47:14.910Z,67.52
2022-10-25T17:49:41.647Z,67.61
2022-10-25T17:52:09.509Z,67.05
2022-10-25T17:54:37.517Z,66.76
2022-10-25T17:57:05.743Z,66.56
2022-10-25T17:59:32.854Z,66.99
2022-10-25T18:01:59.651Z,66.89
2022-10-25T18:04:26.227Z,67.18
2022-10-25T18:06:52.672Z,67.22
2022-10-25T18:09:19.353Z,66.75
2022-10-25T18:11:45.896Z,66.32
2022-10-25T18:14:12.360Z,66.03
2022-10-25T18:16:38.855Z,66.13
2022-10-25T18:19:06.250Z,66.06
2022-10-25T18:21:33.322Z,65.47
2022-10-25T18:24:02.188Z,65.35
2022-10-25T18:26:29.148Z,65.66
2022-10-25T18:28:57.625Z,65.59
2022-10-25T18:31:26.972Z,65.29
2022-10-25T18:33:59.007Z,65.05
2022-10-25T18:36:27.610Z,64.88
2022-10-25T18:38:54.671Z,64.85
2022-10-25T18:41:28.128Z,64.93
2022-10-25T18:43:55.827Z,64.58
2022-10-25T18:46:23.511Z,65.08
2022-10-25T18:48:51.575Z,65.11
2022-10-25T18:51:19.509Z,65.23
2022-10-25T18:53:45.957Z,65.78
2022-10-25T18:56:17.101Z,65.63
2022-10-25T18:58:46.654Z,65.43
2022-10-25T19:01:15.525Z,65.56
2022-10-25T19:03:42.788Z,65.03
2022-10-25T19:06:09.885Z,65.27
2022-10-25T19:08:37.176Z,65.11
2022-10-25T19:11:08.958Z,64.79
2022-10-25T19:13:36.113Z,64.82
2022-10-25T19:16:02.845Z,64.93
2022-10-25T19:18:31.096Z,64.88
2022-10-25T19:21:06.333Z,65.29
2022-10-25T19:23:33.050Z,64.86
2022-10-25T19:26:08.388Z,64.77
2022-10-25T19:28:34.936Z,64.81
2022-10-25T19:31:06.574Z,65.00
2022-10-25T19:33:32.923Z,64.79
2022-10-25T19:36:07.831Z,64.69
2022-10-25T19:38:38.814Z,65.26
2022-10-25T19:41:08.170Z,65.76
2022-10-25T19:43:36.085Z,66.20
2022-10-25T19:46:05.096Z,65.80
2022-10-25T19:48:32.833Z,66.14
2022-10-25T19:51:07.801Z,65.89
2022-10-25T19:53:34.626Z,65.72
2022-10-25T19:56:03.258Z,65.86
2022-10-25T19:58:29.862Z,66.39
2022-10-25T20:01:20.413Z,66.24
2022-10-25T20:03:50.669Z,65.77
2022-10-25T20:06:24.398Z,65.82
2022-10-25T20:08:52.233Z,66.05
2022-10-25T20:11:18.980Z,65.85
2022-10-25T20:13:45.957Z,66.08
2022-10-25T20:16:13.755Z,66.25
2022-10-25T20:18:41.487Z,66.32
2022-10-25T20:21:17.446Z,66.00
2022-10-25T20:23:49.270Z,66.56
2022-10-25T20:26:18.808Z,67.00
2022-10-25T20:28:45.739Z,67.42
2022-10-25T20:31:12.779Z,67.20
2022-10-25T20:33:40.309Z,67.23
2022-10-25T20:36:08.802Z,66.97
2022-10-25T20:38:36.748Z,66.64
2022-10-25T20:41:24.138Z,66.73
2022-10-25T20:43:55.930Z,66.92
2022-10-25T20:46:24.334Z,66.79
2022-10-25T20:48:51.345Z,67.05
2022-10-25T20:51:18.082Z,67.20
2022-10-25T20:53:45.775Z,66.96
2022-10-25T20:56:13.151Z,66.64
2022-10-25T20:58:39.678Z,66.88
2022-10-25T21:01:06.370Z,67.80
2022-10-25T21:03:33.647Z,66.69
2022-10-25T21:06:03.320Z,66.51
2022-10-25T21:08:30.572Z,66.93
2022-10-25T21:11:01.795Z,66.82
2022-10-25T21:13:33.585Z,67.14
2022-10-25T21:16:06.006Z,67.25
2022-10-25T21:18:32.794Z,67.30
2022-10-25T21:21:04.659Z,67.54
2022-10-25T21:23:32.058Z,68.47
2022-10-25T21:26:03.639Z,68.14
2022-10-25T21:28:38.728Z,67.93
2022-10-25T21:31:07.652Z,67.95
2022-10-25T21:33:34.160Z,67.96
2022-10-25T21:36:09.536Z,68.36
2022-10-25T21:38:36.209Z,68.02
2022-10-25T21:41:16.976Z,68.08
2022-10-25T21:43:45.535Z,68.47
2022-10-25T21:46:13.008Z,68.33
2022-10-25T21:48:39.498Z,68.53
2022-10-25T21:51:06.220Z,68.18
2022-10-25T21:53:33.302Z,68.35
2022-10-25T21:56:11.194Z,68.65
2022-10-25T21:58:39.099Z,68.59
2022-10-25T22:01:11.090Z,68.73
2022-10-25T22:03:38.558Z,68.27
2022-10-25T22:06:06.738Z,68.89
2022-10-25T22:08:33.503Z,69.19
2022-10-25T22:11:05.404Z,68.88
2022-10-25T22:13:31.912Z,68.44
2022-10-25T22:16:01.666Z,68.41
2022-10-25T22:18:28.394Z,68.74
2022-10-25T22:21:00.668Z,68.35
2022-10-25T22:23:30.229Z,68.42
2022-10-25T22:26:05.314Z,68.33
2022-10-25T22:28:34.341Z,68.41
2022-10-25T22:31:08.580Z,68.58
2022-10-25T22:33:36.080Z,69.12
2022-10-25T22:36:09.962Z,69.42
2022-10-25T22:38:36.821Z,68.91
2022-10-25T22:41:06.633Z,68.72
2022-10-25T22:43:36.877Z,68.85
2022-10-25T22:46:05.819Z,68.66
2022-10-25T22:48:34.939Z,69.08
2022-10-25T22:51:01.437Z,69.13
2022-10-25T22:53:28.419Z,69.04
2022-10-25T22:56:08.210Z,69.09
2022-10-25T22:58:35.554Z,69.38
2022-10-25T23:01:12.960Z,68.98
2022-10-25T23:03:44.487Z,69.17
2022-10-25T23:06:13.563Z,69.44
2022-10-25T23:08:40.531Z,69.42
2022-10-25T23:11:27.906Z,70.29
2022-10-25T23:13:54.342Z,69.99
2022-10-25T23:16:20.880Z,69.82
2022-10-25T23:18:47.368Z,69.86
2022-10-25T23:21:15.897Z,69.89
2022-10-25T23:23:42.774Z,69.36
2022-10-25T23:26:14.506Z,69.17
2022-10-25T23:28:40.830Z,69.24
2022-10-25T23:31:09.902Z,69.81
2022-10-25T23:33:36.691Z,70.14
2022-10-25T23:36:15.429Z,70.11
2022-10-25T23:38:45.034Z,69.79
2022-10-25T23:41:12.211Z,69.66
2022-10-25T23:43:39.266Z,70.18
2022-10-25T23:46:06.468Z,70.50
2022-10-25T23:48:33.264Z,70.25
2022-10-25T23:51:06.123Z,69.95
2022-10-25T23:53:33.319Z,70.07
2022-10-25T23:55:59.795Z,70.01
2022-10-25T23:58:26.679Z,70.55
